Time;durP1;ratioP1;P1;durP2;ratioP2;P2;SDS_P1;SDS_P2;PMS_P1;PMS_P2;Temp;Humidity;BMP_temperature;BMP_pressure;BME280_temperature;BME280_humidity;BME280_pressure;Samples;Min_cycle;Max_cycle;Signal;HPM_P1;HPM_P2
2022/10/22 00:01:00;;;;;;;15.47;10.37;;;15.30;45.10;;;;;;4997601;28;20507;-62
2022/10/22 00:03:27;;;;;;;18.23;11.70;;;15.30;45.30;;;;;;4999478;28;20703;-62
2022/10/22 00:05:53;;;;;;;16.00;10.93;;;15.40;45.30;;;;;;4999999;28;20952;-62
2022/10/22 00:08:20;;;;;;;15.53;11.00;;;15.40;45.30;;;;;;5001058;28;20474;-62
2022/10/22 00:10:48;;;;;;;13.87;10.00;;;15.40;45.40;;;;;;5000939;28;20484;-62
2022/10/22 00:13:16;;;;;;;14.50;8.93;;;15.40;45.40;;;;;;4997333;28;20477;-62
2022/10/22 00:15:43;;;;;;;12.43;7.67;;;15.40;45.20;;;;;;4999550;28;20471;-62
2022/10/22 00:18:09;;;;;;;11.67;8.00;;;15.50;44.80;;;;;;5002205;28;20460;-62
2022/10/22 00:20:36;;;;;;;10.93;7.27;;;15.50;44.60;;;;;;4996566;28;20480;-62
2022/10/22 00:23:03;;;;;;;10.10;7.33;;;15.50;44.70;;;;;;4990038;28;20468;-62
2022/10/22 00:25:30;;;;;;;7.73;4.70;;;15.40;44.60;;;;;;5001360;28;20457;-62
2022/10/22 00:27:58;;;;;;;8.30;4.67;;;15.40;44.60;;;;;;4999370;28;20463;-62
2022/10/22 00:30:25;;;;;;;7.20;3.77;;;15.30;44.30;;;;;;5005713;28;20460;-61
2022/10/22 00:32:51;;;;;;;6.30;3.60;;;15.30;43.70;;;;;;4994663;28;20471;-62
2022/10/22 00:35:18;;;;;;;8.20;4.20;;;15.30;43.50;;;;;;4999293;28;20464;-62
2022/10/22 00:37:45;;;;;;;8.60;3.30;;;15.30;43.60;;;;;;4999653;28;20467;-62
2022/10/22 00:40:12;;;;;;;6.50;3.13;;;15.30;43.40;;;;;;4997083;28;20470;-61
2022/10/22 00:42:39;;;;;;;6.50;2.60;;;15.20;43.20;;;;;;4999315;28;20471;-62
2022/10/22 00:45:20;;;;;;;7.53;2.77;;;15.20;43.30;;;;;;5004424;28;20469;-61
2022/10/22 00:47:54;;;;;;;4.73;2.00;;;15.20;43.10;;;;;;5003912;28;20461;-62
2022/10/22 00:50:26;;;;;;;5.33;2.10;;;15.20;42.50;;;;;;4995483;28;20511;-62
2022/10/22 00:52:54;;;;;;;5.20;1.90;;;15.10;42.50;;;;;;5002552;28;20493;-61
2022/10/22 00:55:22;;;;;;;5.20;1.93;;;15.10;42.80;;;;;;5000683;28;20461;-62
2022/10/22 00:57:49;;;;;;;5.97;1.63;;;15.00;42.90;;;;;;4996541;28;20459;-62
2022/10/22 01:00:17;;;;;;;4.50;1.93;;;15.00;42.90;;;;;;4993758;28;20626;-61
2022/10/22 01:02:45;;;;;;;4.70;1.80;;;14.90;43.00;;;;;;5003887;28;20451;-61
2022/10/22 01:05:12;;;;;;;5.70;2.17;;;14.90;43.10;;;;;;4998977;28;20457;-62
2022/10/22 01:07:42;;;;;;;5.57;1.70;;;14.90;43.10;;;;;;4998459;28;20459;-62
2022/10/22 01:10:14;;;;;;;5.40;1.40;;;14.90;43.20;;;;;;4998829;28;20464;-61
2022/10/22 01:12:47;;;;;;;5.57;1.87;;;14.80;43.20;;;;;;4996338;28;20495;-62
2022/10/22 01:15:24;;;;;;;7.43;1.70;;;14.80;43.10;;;;;;4999384;28;20494;-61
2022/10/22 01:17:59;;;;;;;6.57;1.90;;;14.80;43.20;;;;;;5001867;28;20459;-61
2022/10/22 01:20:54;;;;;;;4.80;1.67;;;14.80;43.10;;;;;;4992245;28;20463;-62
2022/10/22 01:23:42;;;;;;;4.70;1.93;;;14.80;43.20;;;;;;4999867;28;20463;-61
2022/10/22 01:26:21;;;;;;;5.27;1.93;;;14.70;43.00;;;;;;4999237;28;20480;-61
2022/10/22 01:28:58;;;;;;;4.90;1.73;;;14.80;42.80;;;;;;5002600;28;20475;-62
2022/10/22 01:31:30;;;;;;;5.77;1.57;;;14.70;42.80;;;;;;4995875;28;20479;-62
2022/10/22 01:33:59;;;;;;;14.80;1.87;;;14.70;42.60;;;;;;5002035;28;20487;-61
2022/10/22 01:36:27;;;;;;;4.63;1.43;;;14.70;42.70;;;;;;5004438;28;20459;-61
2022/10/22 01:38:55;;;;;;;6.67;1.57;;;14.70;42.60;;;;;;4997784;28;20514;-61
2022/10/22 01:41:22;;;;;;;4.50;1.20;;;14.70;42.60;;;;;;5004304;28;20494;-61
2022/10/22 01:43:50;;;;;;;8.93;1.40;;;14.70;42.60;;;;;;4994509;28;20463;-61
2022/10/22 01:46:24;;;;;;;3.90;1.30;;;14.60;42.60;;;;;;5002376;28;20487;-62
2022/10/22 01:49:03;;;;;;;4.50;1.30;;;14.60;43.60;;;;;;5000483;28;20465;-62
2022/10/22 01:51:51;;;;;;;4.73;1.20;;;14.60;42.60;;;;;;4998098;28;20484;-62
2022/10/22 01:54:30;;;;;;;9.50;1.37;;;14.60;42.80;;;;;;5000504;28;20605;-61
2022/10/22 01:57:07;;;;;;;5.23;1.37;;;14.60;43.50;;;;;;4997799;28;20467;-61
2022/10/22 01:59:45;;;;;;;3.90;1.23;;;14.60;42.70;;;;;;5001881;28;20459;-61
2022/10/22 02:02:22;;;;;;;6.90;1.50;;;14.50;42.80;;;;;;4992732;28;21008;-61
2022/10/22 02:04:52;;;;;;;4.73;1.47;;;14.50;42.60;;;;;;4996677;28;20451;-62
2022/10/22 02:07:23;;;;;;;4.10;1.20;;;14.50;42.40;;;;;;5002931;28;20466;-62
2022/10/22 02:09:51;;;;;;;7.10;1.50;;;14.50;42.60;;;;;;4997931;28;20455;-61
2022/10/22 02:12:20;;;;;;;6.57;1.70;;;14.50;42.80;;;;;;4999884;28;20527;-61
2022/10/22 02:14:51;;;;;;;10.23;1.70;;;14.60;42.90;;;;;;4996023;28;20548;-61
2022/10/22 02:17:21;;;;;;;4.10;1.00;;;14.50;43.00;;;;;;4997130;28;20591;-62
2022/10/22 02:19:52;;;;;;;6.53;1.20;;;14.50;42.90;;;;;;5001052;28;20459;-62
2022/10/22 02:22:20;;;;;;;6.20;1.47;;;14.40;43.00;;;;;;4999048;28;20853;-62
2022/10/22 02:24:48;;;;;;;6.13;1.70;;;14.40;43.10;;;;;;4998310;28;20478;-61
2022/10/22 02:27:21;;;;;;;4.00;1.23;;;14.40;43.00;;;;;;4991867;28;20464;-61
2022/10/22 02:29:55;;;;;;;4.07;1.00;;;14.40;43.30;;;;;;5002512;28;20913;-61
2022/10/22 02:32:27;;;;;;;5.93;1.23;;;14.40;43.20;;;;;;5004730;28;20487;-62
2022/10/22 02:34:55;;;;;;;10.27;2.17;;;14.40;43.20;;;;;;5006661;28;20463;-61
2022/10/22 02:37:24;;;;;;;4.27;1.23;;;14.40;43.30;;;;;;4997477;28;20513;-62
2022/10/22 02:39:52;;;;;;;4.67;1.13;;;14.40;43.30;;;;;;5003015;28;20468;-61
2022/10/22 02:42:19;;;;;;;4.23;1.00;;;14.30;43.40;;;;;;5001545;28;20807;-61
2022/10/22 02:44:46;;;;;;;4.20;1.10;;;14.30;43.20;;;;;;5005418;28;20466;-62
2022/10/22 02:47:14;;;;;;;5.20;1.27;;;14.30;43.30;;;;;;5002405;28;20471;-62
2022/10/22 02:49:41;;;;;;;4.37;0.97;;;14.30;43.20;;;;;;5001691;28;20470;-62
2022/10/22 02:52:07;;;;;;;4.10;1.23;;;14.30;43.10;;;;;;4998566;28;21010;-62
2022/10/22 02:54:34;;;;;;;3.97;1.03;;;14.30;43.30;;;;;;4997957;28;20460;-62
2022/10/22 02:57:01;;;;;;;4.40;1.10;;;14.30;43.20;;;;;;5003903;28;20467;-62
2022/10/22 02:59:28;;;;;;;5.40;1.80;;;14.30;44.00;;;;;;5005223;28;20472;-62
2022/10/22 03:01:55;;;;;;;5.10;1.10;;;14.30;43.30;;;;;;5003374;28;20484;-61
2022/10/22 03:04:23;;;;;;;3.80;0.80;;;14.20;43.30;;;;;;5001232;28;20466;-62
2022/10/22 03:06:50;;;;;;;3.93;0.70;;;14.20;43.30;;;;;;5002547;28;20460;-62
2022/10/22 03:09:17;;;;;;;4.00;1.00;;;14.20;43.30;;;;;;5002757;28;20456;-62
2022/10/22 03:11:43;;;;;;;6.83;1.30;;;14.20;43.50;;;;;;5002951;28;20480;-62
2022/10/22 03:14:10;;;;;;;4.70;1.20;;;14.20;43.20;;;;;;4998471;28;20480;-62
2022/10/22 03:16:37;;;;;;;4.97;1.00;;;14.20;43.10;;;;;;4996096;28;20463;-62
2022/10/22 03:19:04;;;;;;;4.37;0.90;;;14.20;43.30;;;;;;5003421;28;20452;-61
2022/10/22 03:21:36;;;;;;;5.40;0.80;;;14.20;43.20;;;;;;4996769;28;21868;-62
2022/10/22 03:24:09;;;;;;;4.33;0.77;;;14.20;43.10;;;;;;5002107;28;20463;-62
2022/10/22 03:26:37;;;;;;;4.57;0.67;;;14.20;42.90;;;;;;5005618;28;20471;-62
2022/10/22 03:29:04;;;;;;;4.33;0.77;;;14.20;42.90;;;;;;4993210;28;20464;-62
2022/10/22 03:31:31;;;;;;;5.20;1.57;;;14.10;43.30;;;;;;4996825;28;20481;-62
2022/10/22 03:33:57;;;;;;;4.80;0.90;;;14.10;43.50;;;;;;4994388;28;20485;-62
2022/10/22 03:36:25;;;;;;;4.00;1.00;;;14.10;43.60;;;;;;5005128;28;20468;-62
2022/10/22 03:38:54;;;;;;;4.67;1.03;;;14.10;43.40;;;;;;4999692;28;20460;-62
2022/10/22 03:41:20;;;;;;;4.73;1.10;;;14.10;43.50;;;;;;4992065;28;20991;-61
2022/10/22 03:43:51;;;;;;;4.17;1.10;;;14.10;43.40;;;;;;5000121;28;20465;-62
2022/10/22 03:46:18;;;;;;;6.70;1.93;;;14.10;43.60;;;;;;5000157;28;20522;-62
2022/10/22 03:48:45;;;;;;;4.70;1.00;;;14.10;43.50;;;;;;5001159;28;20461;-62
2022/10/22 03:51:13;;;;;;;5.40;0.90;;;14.10;43.80;;;;;;5005474;28;20495;-62
2022/10/22 03:53:39;;;;;;;3.50;0.60;;;14.10;43.50;;;;;;4997694;28;20481;-62
2022/10/22 03:56:10;;;;;;;4.67;0.97;;;14.10;43.70;;;;;;4998004;28;20461;-62
2022/10/22 03:58:37;;;;;;;4.50;1.10;;;14.10;43.10;;;;;;4996200;28;20460;-62
2022/10/22 04:01:05;;;;;;;4.00;0.70;;;14.10;43.10;;;;;;4996134;28;20491;-62
2022/10/22 04:03:32;;;;;;;4.63;0.70;;;14.10;43.20;;;;;;4994702;28;20963;-62
2022/10/22 04:06:01;;;;;;;5.43;0.90;;;14.10;43.10;;;;;;4994507;28;20472;-62
2022/10/22 04:08:28;;;;;;;3.80;0.93;;;14.10;43.20;;;;;;4994026;28;20457;-61
2022/10/22 04:10:55;;;;;;;6.90;0.87;;;14.10;42.90;;;;;;4994426;28;20484;-62
2022/10/22 04:13:23;;;;;;;8.50;1.03;;;14.10;43.00;;;;;;4998347;28;20484;-62
2022/10/22 04:15:51;;;;;;;3.50;0.80;;;14.10;43.00;;;;;;4995598;28;20467;-62
2022/10/22 04:18:18;;;;;;;4.33;0.93;;;14.10;43.20;;;;;;5004407;28;20467;-62
2022/10/22 04:20:45;;;;;;;4.67;1.00;;;14.00;43.20;;;;;;5004479;28;20487;-62
2022/10/22 04:23:11;;;;;;;3.70;0.97;;;14.00;43.40;;;;;;4998430;28;20464;-61
2022/10/22 04:25:38;;;;;;;6.80;1.37;;;14.00;43.30;;;;;;4996270;28;20460;-61
2022/10/22 04:28:06;;;;;;;6.10;1.03;;;14.00;43.50;;;;;;4998123;28;20456;-62
2022/10/22 04:30:36;;;;;;;5.50;1.33;;;14.00;43.50;;;;;;5001584;28;21016;-62
2022/10/22 04:33:03;;;;;;;3.57;0.97;;;14.00;43.40;;;;;;4997537;28;20480;-61
2022/10/22 04:35:30;;;;;;;4.07;1.17;;;14.00;43.30;;;;;;4999572;28;20839;-62
2022/10/22 04:37:57;;;;;;;3.93;0.90;;;14.00;43.60;;;;;;4997153;28;20463;-62
2022/10/22 04:40:23;;;;;;;5.10;0.87;;;14.00;44.10;;;;;;4991035;28;20981;-61
2022/10/22 04:42:50;;;;;;;3.50;0.63;;;14.00;43.30;;;;;;4999050;28;20461;-62
2022/10/22 04:45:17;;;;;;;8.80;0.97;;;13.90;43.70;;;;;;5000087;28;20482;-61
2022/10/22 04:47:45;;;;;;;4.27;0.97;;;13.90;43.90;;;;;;4997219;28;20467;-62
2022/10/22 04:50:12;;;;;;;7.00;1.30;;;13.90;43.60;;;;;;4998742;28;20459;-61
2022/10/22 04:52:38;;;;;;;4.13;1.20;;;13.90;43.70;;;;;;4994606;28;21155;-62
2022/10/22 04:55:06;;;;;;;3.60;0.80;;;13.90;44.00;;;;;;5001453;28;21099;-62
2022/10/22 04:57:32;;;;;;;4.47;1.10;;;13.80;44.20;;;;;;4994493;28;20455;-62
2022/10/22 04:59:59;;;;;;;5.70;1.00;;;13.80;44.50;;;;;;5002916;28;20467;-62
2022/10/22 05:02:26;;;;;;;4.07;1.10;;;13.70;44.70;;;;;;4996181;28;20485;-62
2022/10/22 05:04:54;;;;;;;4.73;0.83;;;13.70;45.10;;;;;;4995796;28;20832;-61
2022/10/22 05:07:22;;;;;;;5.33;1.00;;;13.70;45.40;;;;;;4995906;28;20988;-61
2022/10/22 05:09:49;;;;;;;3.80;1.00;;;13.60;45.30;;;;;;4994753;28;21007;-62
2022/10/22 05:12:16;;;;;;;4.60;1.03;;;13.60;45.60;;;;;;4998009;28;20487;-61
2022/10/22 05:14:43;;;;;;;5.80;0.90;;;13.60;45.60;;;;;;4996787;28;20486;-62
2022/10/22 05:17:09;;;;;;;4.83;1.10;;;13.70;45.50;;;;;;5000581;28;20471;-62
2022/10/22 05:19:36;;;;;;;7.27;1.80;;;13.70;45.30;;;;;;5000875;28;20464;-62
2022/10/22 05:22:05;;;;;;;3.93;0.80;;;13.70;45.40;;;;;;5001626;28;20484;-62
2022/10/22 05:24:35;;;;;;;6.43;1.00;;;13.70;45.10;;;;;;4994897;28;20464;-61
2022/10/22 05:27:03;;;;;;;3.83;0.70;;;13.70;45.10;;;;;;4996682;28;20969;-61
2022/10/22 05:29:29;;;;;;;4.30;0.90;;;13.70;45.00;;;;;;4992940;28;20465;-61
2022/10/22 05:31:57;;;;;;;4.40;0.90;;;13.70;45.00;;;;;;5000839;28;20483;-61
2022/10/22 05:34:23;;;;;;;3.50;0.63;;;13.70;45.00;;;;;;4995523;28;20471;-61
2022/10/22 05:36:50;;;;;;;4.00;0.80;;;13.70;44.70;;;;;;4998826;28;20467;-61
2022/10/22 05:39:18;;;;;;;7.13;0.80;;;13.80;44.60;;;;;;4994522;28;20456;-61
2022/10/22 05:41:45;;;;;;;6.27;0.77;;;13.80;44.60;;;;;;5003747;28;20498;-62
2022/10/22 05:44:12;;;;;;;3.50;0.53;;;13.80;44.60;;;;;;4997261;28;20459;-62
2022/10/22 05:46:39;;;;;;;4.30;0.90;;;13.80;44.40;;;;;;4999258;28;20473;-62
2022/10/22 05:49:07;;;;;;;6.53;0.90;;;13.80;44.60;;;;;;4995426;28;20496;-61
2022/10/22 05:51:36;;;;;;;3.67;1.00;;;13.80;44.60;;;;;;5002849;28;20488;-62
2022/10/22 05:54:06;;;;;;;5.10;0.90;;;13.70;44.60;;;;;;4996787;28;20482;-62
2022/10/22 05:56:35;;;;;;;3.50;0.70;;;13.80;44.30;;;;;;4991664;28;20472;-61
2022/10/22 05:59:02;;;;;;;3.97;0.90;;;13.80;44.30;;;;;;4997042;28;20465;-61
2022/10/22 06:01:30;;;;;;;3.60;0.83;;;13.80;44.30;;;;;;4994454;28;20483;-61
2022/10/22 06:03:59;;;;;;;3.60;0.70;;;13.80;44.30;;;;;;4998693;28;20460;-61
2022/10/22 06:06:31;;;;;;;4.33;0.90;;;13.80;44.20;;;;;;5001860;28;20471;-61
2022/10/22 06:09:02;;;;;;;5.63;0.80;;;13.80;44.30;;;;;;4994739;28;20475;-61
2022/10/22 06:11:28;;;;;;;3.57;0.70;;;13.80;44.10;;;;;;4994899;28;20468;-62
2022/10/22 06:13:56;;;;;;;6.07;0.90;;;13.80;43.80;;;;;;4999177;28;20480;-62
2022/10/22 06:16:23;;;;;;;3.90;1.00;;;13.80;44.10;;;;;;4996635;28;20472;-61
2022/10/22 06:18:50;;;;;;;4.63;1.07;;;13.80;43.70;;;;;;4998701;28;20471;-62
2022/10/22 06:21:17;;;;;;;4.60;0.97;;;13.90;44.00;;;;;;5006096;28;20479;-62
2022/10/22 06:23:44;;;;;;;6.60;0.80;;;13.80;43.90;;;;;;5001183;28;20860;-61
2022/10/22 06:26:11;;;;;;;3.50;0.60;;;13.80;43.80;;;;;;5001740;28;20820;-61
2022/10/22 06:28:38;;;;;;;3.93;0.80;;;13.90;43.80;;;;;;5003171;28;20463;-61
2022/10/22 06:31:07;;;;;;;4.40;0.80;;;13.90;43.80;;;;;;4996644;28;20960;-61
2022/10/22 06:33:40;;;;;;;4.20;0.70;;;13.90;43.70;;;;;;5001090;28;20479;-62
2022/10/22 06:36:09;;;;;;;4.13;0.57;;;13.90;43.80;;;;;;5005354;28;20525;-61
2022/10/22 06:38:36;;;;;;;4.33;0.80;;;13.90;43.80;;;;;;5000668;28;20457;-61
2022/10/22 06:41:04;;;;;;;3.73;0.60;;;13.90;43.80;;;;;;4997471;28;20490;-62
2022/10/22 06:43:31;;;;;;;3.60;0.70;;;14.00;43.80;;;;;;5006108;28;20466;-61
2022/10/22 06:46:01;;;;;;;3.93;0.87;;;14.00;43.70;;;;;;5004280;28;20460;-61
2022/10/22 06:48:29;;;;;;;3.40;0.80;;;14.00;43.60;;;;;;4996495;28;20464;-61
2022/10/22 06:51:00;;;;;;;4.57;0.87;;;14.00;43.50;;;;;;4996814;28;20488;-62
2022/10/22 06:53:27;;;;;;;3.80;0.83;;;14.10;43.70;;;;;;4997033;28;20455;-62
2022/10/22 06:55:54;;;;;;;3.80;0.90;;;14.10;43.50;;;;;;4992262;28;21042;-62
2022/10/22 06:58:20;;;;;;;3.70;0.90;;;14.10;43.40;;;;;;5001373;28;20466;-61
2022/10/22 07:00:47;;;;;;;4.67;0.60;;;14.10;43.40;;;;;;4998778;28;20480;-62
2022/10/22 07:03:14;;;;;;;4.10;0.80;;;14.20;43.10;;;;;;4994652;28;20461;-62
2022/10/22 07:05:42;;;;;;;3.60;0.90;;;14.10;43.10;;;;;;5001746;28;20464;-62
2022/10/22 07:08:09;;;;;;;3.80;0.73;;;14.20;42.90;;;;;;5003997;28;20812;-61
2022/10/22 07:10:36;;;;;;;5.07;1.00;;;14.20;43.20;;;;;;4997676;28;20495;-62
2022/10/22 07:13:02;;;;;;;3.60;0.87;;;14.10;43.10;;;;;;4998982;28;20471;-61
2022/10/22 07:15:29;;;;;;;4.23;0.80;;;14.20;43.00;;;;;;5000078;28;20490;-62
2022/10/22 07:17:56;;;;;;;5.87;0.70;;;14.20;42.90;;;;;;4997540;28;20463;-62
2022/10/22 07:20:23;;;;;;;7.57;1.00;;;14.20;42.80;;;;;;4998196;28;20482;-61
2022/10/22 07:22:51;;;;;;;3.80;1.20;;;14.20;43.00;;;;;;4994744;28;20461;-62
2022/10/22 07:25:18;;;;;;;3.77;0.80;;;14.20;43.20;;;;;;5001964;28;20496;-61
2022/10/22 07:27:44;;;;;;;3.90;0.60;;;14.20;43.20;;;;;;4997782;28;20475;-63
2022/10/22 07:30:12;;;;;;;3.60;0.60;;;14.20;43.30;;;;;;4995235;28;20464;-62
2022/10/22 07:32:39;;;;;;;5.43;1.00;;;14.20;43.30;;;;;;4990999;28;20471;-64
2022/10/22 07:35:06;;;;;;;7.50;1.00;;;14.30;43.40;;;;;;4994073;28;20576;-63
2022/10/22 07:37:33;;;;;;;4.43;0.83;;;14.30;43.40;;;;;;4991021;28;20455;-64
2022/10/22 07:40:01;;;;;;;3.80;0.87;;;14.30;43.50;;;;;;4995279;28;20479;-64
2022/10/22 07:42:28;;;;;;;4.37;1.00;;;14.40;43.40;;;;;;4993584;28;20499;-64
2022/10/22 07:44:55;;;;;;;7.73;1.00;;;14.40;43.30;;;;;;4996622;28;20456;-62
2022/10/22 07:47:21;;;;;;;4.13;1.00;;;14.50;43.10;;;;;;5001295;28;20491;-63
2022/10/22 07:49:48;;;;;;;3.53;0.80;;;14.50;42.90;;;;;;4997511;28;20837;-62
2022/10/22 07:52:15;;;;;;;4.57;0.83;;;14.60;42.70;;;;;;5002309;28;20487;-62
2022/10/22 07:54:42;;;;;;;7.80;0.80;;;14.60;42.50;;;;;;4996956;28;20482;-62
2022/10/22 07:57:10;;;;;;;4.90;0.87;;;14.70;42.40;;;;;;4999757;28;20471;-62
2022/10/22 07:59:36;;;;;;;3.80;0.73;;;14.70;42.40;;;;;;4999697;28;20460;-63
2022/10/22 08:02:03;;;;;;;3.57;0.70;;;14.80;42.30;;;;;;4995037;28;20507;-63
2022/10/22 08:04:30;;;;;;;3.80;0.80;;;14.90;42.20;;;;;;5001553;28;20851;-63
2022/10/22 08:06:57;;;;;;;4.80;0.90;;;15.00;42.10;;;;;;4999591;28;20461;-63
2022/10/22 08:09:23;;;;;;;6.03;1.43;;;15.10;41.90;;;;;;4996797;28;20460;-63
2022/10/22 08:11:50;;;;;;;4.90;1.20;;;15.30;41.40;;;;;;4994421;28;20496;-63
2022/10/22 08:14:18;;;;;;;3.80;0.80;;;15.40;40.70;;;;;;5002360;28;20491;-63
2022/10/22 08:16:45;;;;;;;4.97;1.10;;;15.50;40.20;;;;;;4996988;28;20499;-63
2022/10/22 08:19:17;;;;;;;5.07;0.87;;;15.60;40.10;;;;;;4997465;28;20976;-63
2022/10/22 08:21:44;;;;;;;5.47;1.00;;;15.70;40.20;;;;;;4998853;28;21055;-63
2022/10/22 08:24:11;;;;;;;4.27;1.20;;;15.70;40.10;;;;;;4997019;28;20461;-63
2022/10/22 08:26:38;;;;;;;3.80;0.80;;;15.80;39.80;;;;;;5001000;28;20829;-63
2022/10/22 08:29:05;;;;;;;4.43;1.00;;;15.80;39.50;;;;;;4994277;28;20455;-62
2022/10/22 08:31:33;;;;;;;3.63;0.80;;;15.90;39.50;;;;;;4998367;28;20481;-62
2022/10/22 08:34:00;;;;;;;4.33;1.10;;;15.90;39.30;;;;;;4997093;28;20456;-63
2022/10/22 08:36:27;;;;;;;5.07;1.00;;;16.30;40.00;;;;;;4991895;28;20496;-63
2022/10/22 08:38:53;;;;;;;4.80;1.00;;;17.30;38.00;;;;;;4999560;28;21023;-63
2022/10/22 08:41:23;;;;;;;4.07;0.70;;;18.30;35.10;;;;;;4995313;28;20515;-63
2022/10/22 08:44:18;;;;;;;4.53;1.57;;;18.90;32.20;;;;;;4998566;28;21066;-63
2022/10/22 08:47:09;;;;;;;3.83;0.70;;;19.30;29.70;;;;;;4962175;28;20456;-63
2022/10/22 08:49:40;;;;;;;3.53;0.97;;;19.40;29.20;;;;;;4995470;28;20551;-63
2022/10/22 08:52:12;;;;;;;3.20;0.50;;;21.10;26.90;;;;;;4994891;28;20491;-63
2022/10/22 08:54:47;;;;;;;3.70;0.80;;;22.80;22.40;;;;;;4995444;28;20485;-63
2022/10/22 08:57:24;;;;;;;4.57;0.80;;;23.70;18.40;;;;;;4990333;28;20464;-65
2022/10/22 08:59:57;;;;;;;4.67;0.90;;;23.00;18.30;;;;;;4994979;28;20460;-64
2022/10/22 09:02:37;;;;;;;5.90;1.00;;;22.60;18.90;;;;;;4989089;28;20492;-65
2022/10/22 09:05:23;;;;;;;3.63;0.87;;;22.20;19.60;;;;;;4992542;28;20456;-63
2022/10/22 09:07:50;;;;;;;4.37;1.13;;;21.80;20.00;;;;;;4991009;28;20537;-62
2022/10/22 09:10:19;;;;;;;3.40;0.90;;;21.50;21.00;;;;;;4996167;28;20452;-65
2022/10/22 09:12:47;;;;;;;3.60;0.80;;;21.30;21.70;;;;;;5001667;28;20464;-61
2022/10/22 09:15:15;;;;;;;4.37;0.90;;;21.50;23.00;;;;;;5001363;28;20838;-61
2022/10/22 09:17:55;;;;;;;3.50;0.80;;;22.30;22.60;;;;;;4993712;28;20833;-62
2022/10/22 09:20:28;;;;;;;3.53;0.90;;;23.00;20.20;;;;;;4996857;28;20466;-62
2022/10/22 09:23:05;;;;;;;3.50;1.00;;;23.60;19.50;;;;;;4996929;28;20479;-62
2022/10/22 09:25:36;;;;;;;5.20;0.93;;;23.90;17.90;;;;;;4991570;28;20456;-61
2022/10/22 09:28:03;;;;;;;3.90;0.97;;;24.30;17.50;;;;;;4992920;28;20769;-62
2022/10/22 09:30:33;;;;;;;3.70;1.10;;;24.50;16.00;;;;;;4987841;28;20798;-62
2022/10/22 09:33:06;;;;;;;6.03;1.20;;;24.70;14.60;;;;;;4999316;28;20464;-61
2022/10/22 09:35:35;;;;;;;5.30;1.10;;;24.80;14.60;;;;;;4997531;28;20476;-62
2022/10/22 09:38:07;;;;;;;4.77;1.50;;;25.10;14.00;;;;;;4997572;28;20460;-62
2022/10/22 09:40:44;;;;;;;4.43;1.40;;;25.30;13.70;;;;;;4989330;28;20567;-62
2022/10/22 09:43:13;;;;;;;3.60;1.00;;;25.50;13.10;;;;;;4997468;28;20762;-62
2022/10/22 09:45:41;;;;;;;3.80;1.17;;;25.80;12.80;;;;;;4997011;28;20457;-62
2022/10/22 09:48:20;;;;;;;4.07;1.00;;;26.00;11.80;;;;;;4994135;28;20467;-62
2022/10/22 09:50:48;;;;;;;3.70;1.20;;;25.90;11.30;;;;;;4994203;28;20484;-62
2022/10/22 09:53:19;;;;;;;3.60;1.10;;;25.90;11.50;;;;;;4990741;28;20931;-62
2022/10/22 09:55:51;;;;;;;3.83;1.20;;;25.50;11.60;;;;;;4987990;28;20477;-63
2022/10/22 09:58:19;;;;;;;4.93;1.20;;;25.00;12.30;;;;;;4994497;28;20468;-62
2022/10/22 10:00:48;;;;;;;5.23;1.50;;;24.60;13.50;;;;;;4987769;28;21060;-62
2022/10/22 10:03:22;;;;;;;3.70;1.20;;;24.40;14.10;;;;;;4993895;28;20467;-66
2022/10/22 10:05:52;;;;;;;3.80;1.23;;;24.20;14.60;;;;;;4993403;28;20464;-68
2022/10/22 10:08:19;;;;;;;4.20;1.00;;;24.20;15.60;;;;;;4989350;28;20464;-69
2022/10/22 10:10:49;;;;;;;5.13;1.07;;;24.90;15.00;;;;;;4983071;28;20484;-63
2022/10/22 10:13:41;;;;;;;4.00;1.40;;;25.00;13.10;;;;;;4993122;28;20463;-67
2022/10/22 10:16:15;;;;;;;4.50;1.17;;;25.00;13.20;;;;;;4992229;28;20499;-63
2022/10/22 10:19:14;;;;;;;4.37;1.13;;;24.70;13.50;;;;;;4993368;28;20988;-62
2022/10/22 10:21:54;;;;;;;3.50;1.20;;;24.40;13.60;;;;;;4993009;28;20515;-62
2022/10/22 10:24:28;;;;;;;4.00;1.70;;;24.70;13.70;;;;;;4992649;28;20463;-63
2022/10/22 10:27:02;;;;;;;6.20;1.20;;;25.00;13.50;;;;;;4993223;28;20479;-62
2022/10/22 10:29:41;;;;;;;5.67;1.30;;;25.20;12.50;;;;;;4990220;28;20463;-64
2022/10/22 10:32:25;;;;;;;4.73;1.30;;;25.50;12.40;;;;;;4990023;28;20999;-61
2022/10/22 10:35:04;;;;;;;4.00;1.20;;;25.60;11.60;;;;;;4988937;28;20488;-61
2022/10/22 10:37:38;;;;;;;4.17;1.17;;;25.40;11.20;;;;;;4997974;28;20468;-61
2022/10/22 10:40:24;;;;;;;5.00;1.30;;;25.40;11.70;;;;;;4995051;28;20456;-59
2022/10/22 10:42:55;;;;;;;3.70;1.20;;;25.40;11.90;;;;;;4990887;28;20469;-60
2022/10/22 10:45:26;;;;;;;3.70;1.20;;;25.40;11.90;;;;;;4992189;28;20464;-60
2022/10/22 10:48:25;;;;;;;4.80;1.30;;;25.50;11.70;;;;;;4989650;28;20464;-60
2022/10/22 10:51:02;;;;;;;5.33;1.30;;;25.50;11.90;;;;;;4993774;28;20856;-59
2022/10/22 10:53:44;;;;;;;4.83;1.27;;;25.50;11.40;;;;;;4991502;28;20463;-60
2022/10/22 10:56:28;;;;;;;4.57;1.67;;;25.30;11.30;;;;;;4988219;28;20881;-60
2022/10/22 10:59:04;;;;;;;7.83;1.80;;;25.20;11.90;;;;;;4997223;28;20972;-60
2022/10/22 11:01:40;;;;;;;4.70;1.40;;;25.00;12.60;;;;;;4976169;28;20496;-60
2022/10/22 11:04:33;;;;;;;4.23;1.63;;;24.90;13.60;;;;;;4982250;28;20972;-61
2022/10/22 11:07:07;;;;;;;4.13;1.20;;;25.20;13.20;;;;;;4999426;28;20456;-60
2022/10/22 11:09:39;;;;;;;5.80;2.00;;;25.50;12.10;;;;;;4996114;28;20461;-60
2022/10/22 11:12:13;;;;;;;3.40;0.80;;;25.70;11.50;;;;;;4998503;28;20494;-60
2022/10/22 11:14:49;;;;;;;4.03;1.43;;;25.90;11.40;;;;;;4999685;28;20463;-60
2022/10/22 11:17:18;;;;;;;6.97;1.20;;;26.00;11.40;;;;;;4999968;28;20471;-60
2022/10/22 11:19:52;;;;;;;5.53;1.40;;;26.20;11.30;;;;;;4998102;28;20468;-60
2022/10/22 11:22:26;;;;;;;4.27;1.20;;;26.20;10.70;;;;;;5000476;28;20483;-61
2022/10/22 11:24:59;;;;;;;4.90;1.50;;;26.20;10.70;;;;;;4997792;28;20479;-60
2022/10/22 11:27:32;;;;;;;5.47;1.67;;;26.20;11.20;;;;;;4999551;28;20469;-61
2022/10/22 11:30:03;;;;;;;5.63;1.10;;;26.30;10.20;;;;;;4994798;28;20825;-61
2022/10/22 11:32:31;;;;;;;5.50;1.30;;;26.40;10.40;;;;;;5003180;28;20479;-62
2022/10/22 11:35:02;;;;;;;6.93;1.43;;;26.50;9.60;;;;;;4995221;28;20476;-62
2022/10/22 11:37:33;;;;;;;4.23;1.27;;;26.30;9.60;;;;;;4992111;28;20466;-62
2022/10/22 11:40:04;;;;;;;4.17;1.43;;;26.20;10.50;;;;;;4994916;28;22518;-62
2022/10/22 11:42:34;;;;;;;7.07;1.53;;;26.10;10.90;;;;;;5003794;28;20483;-60
2022/10/22 11:45:02;;;;;;;4.47;1.17;;;26.10;10.40;;;;;;4998780;28;20473;-60
2022/10/22 11:47:33;;;;;;;3.93;1.17;;;26.10;10.60;;;;;;4992979;28;20840;-63
2022/10/22 11:50:18;;;;;;;4.90;1.40;;;26.30;10.60;;;;;;4997787;28;20464;-62
2022/10/22 11:52:54;;;;;;;4.50;1.27;;;26.50;10.30;;;;;;5000447;28;20506;-64
2022/10/22 11:55:44;;;;;;;4.53;1.33;;;26.50;9.50;;;;;;5009895;23;20500;-67
2022/10/22 11:58:27;;;;;;;5.43;1.30;;;26.50;10.10;;;;;;5003410;28;20532;-69
2022/10/22 12:00:56;;;;;;;4.43;1.37;;;26.50;9.40;;;;;;5000015;28;20480;-67
2022/10/22 12:03:39;;;;;;;4.50;1.30;;;26.50;9.20;;;;;;5002330;28;22323;-65
2022/10/22 12:06:19;;;;;;;3.90;1.30;;;26.30;8.70;;;;;;4978579;28;20453;-65
2022/10/22 12:08:56;;;;;;;4.10;1.50;;;26.30;9.10;;;;;;4978400;28;20500;-64
2022/10/22 12:11:25;;;;;;;5.03;1.60;;;26.20;9.20;;;;;;4976655;28;20562;-64
2022/10/22 12:14:18;;;;;;;4.90;1.40;;;26.10;9.60;;;;;;4978381;28;20477;-61
2022/10/22 12:16:47;;;;;;;4.20;1.30;;;25.90;9.80;;;;;;4969234;28;20495;-67
2022/10/22 12:19:17;;;;;;;4.70;1.40;;;25.80;10.00;;;;;;4981752;28;22334;-67
2022/10/22 12:21:48;;;;;;;4.80;1.60;;;25.70;9.30;;;;;;4975925;28;20469;-66
2022/10/22 12:24:20;;;;;;;6.80;1.53;;;25.50;9.80;;;;;;4980468;28;20550;-66
2022/10/22 12:26:48;;;;;;;3.87;1.27;;;25.40;10.40;;;;;;4974829;28;20453;-66
2022/10/22 12:29:16;;;;;;;5.40;1.20;;;25.40;11.20;;;;;;4979955;28;20901;-73
2022/10/22 12:31:45;;;;;;;7.00;1.40;;;25.30;11.30;;;;;;4973019;28;20487;-72
2022/10/22 12:34:17;;;;;;;7.70;1.83;;;25.10;11.00;;;;;;4981102;28;20485;-73
2022/10/22 12:36:47;;;;;;;4.43;1.20;;;25.00;11.30;;;;;;4974728;28;20996;-65
2022/10/22 12:39:17;;;;;;;5.53;1.30;;;24.80;11.10;;;;;;4978058;28;20462;-64
2022/10/22 12:41:44;;;;;;;4.73;1.33;;;24.70;12.10;;;;;;4974582;28;20456;-70
2022/10/22 12:44:13;;;;;;;4.87;1.80;;;24.50;12.70;;;;;;4979041;28;20482;-63
2022/10/22 12:46:41;;;;;;;4.57;1.20;;;24.40;12.30;;;;;;4971901;28;20493;-65
2022/10/22 12:49:13;;;;;;;5.90;2.63;;;24.20;12.90;;;;;;4978013;28;20475;-65
2022/10/22 12:51:40;;;;;;;5.03;1.30;;;24.10;13.20;;;;;;4976054;28;20471;-65
2022/10/22 12:54:13;;;;;;;4.90;1.20;;;23.90;13.40;;;;;;4977697;28;20501;-65
2022/10/22 12:56:42;;;;;;;5.60;1.40;;;23.80;12.90;;;;;;4977991;28;20473;-66
2022/10/22 12:59:17;;;;;;;6.27;1.30;;;23.60;13.00;;;;;;4976655;28;20472;-73
2022/10/22 13:01:44;;;;;;;4.40;1.00;;;23.40;13.40;;;;;;4980036;28;20574;-76